createdAt,value
2022-08-25T00:01:20.391Z,1.98
2022-08-25T00:03:47.847Z,2.00
2022-08-25T00:06:15.558Z,2.03
2022-08-25T00:08:43.366Z,2.10
2022-08-25T00:11:14.870Z,1.80
2022-08-25T00:13:45.032Z,2.00
2022-08-25T00:16:16.950Z,1.80
2022-08-25T00:18:46.248Z,2.10
2022-08-25T00:21:14.530Z,2.08
2022-08-25T00:23:42.394Z,2.00
2022-08-25T00:26:10.921Z,2.10
2022-08-25T00:28:37.967Z,2.03
2022-08-25T00:31:06.027Z,2.00
2022-08-25T00:33:34.075Z,1.75
2022-08-25T00:36:01.112Z,2.13
2022-08-25T00:38:28.217Z,1.92
2022-08-25T00:41:07.541Z,2.03
2022-08-25T00:43:56.900Z,2.10
2022-08-25T00:46:31.076Z,1.90
2022-08-25T00:49:02.501Z,1.90
2022-08-25T00:51:43.311Z,1.83
2022-08-25T00:54:16.833Z,1.85
2022-08-25T00:56:45.318Z,1.77
2022-08-25T00:59:13.803Z,2.00
2022-08-25T01:01:41.313Z,2.15
2022-08-25T01:04:08.751Z,2.20
2022-08-25T01:06:39.152Z,2.10
2022-08-25T01:09:07.289Z,1.70
2022-08-25T01:11:35.807Z,1.70
2022-08-25T01:14:06.518Z,2.17
2022-08-25T01:16:35.601Z,2.20
2022-08-25T01:19:03.118Z,2.33
2022-08-25T01:21:33.507Z,1.90
2022-08-25T01:28:20.142Z,2.00
2022-08-25T01:30:47.648Z,2.00
2022-08-25T01:33:17.203Z,1.70
2022-08-25T01:35:44.791Z,2.17
2022-08-25T01:38:11.812Z,2.00
2022-08-25T01:40:39.924Z,2.03
2022-08-25T01:43:06.801Z,2.13
2022-08-25T01:45:39.364Z,2.05
2022-08-25T01:48:08.035Z,2.08
2022-08-25T01:50:35.181Z,1.90
2022-08-25T01:53:23.445Z,2.05
2022-08-25T01:55:55.332Z,2.10
2022-08-25T01:58:25.493Z,1.95
2022-08-25T02:00:57.401Z,2.17
2022-08-25T02:03:25.323Z,2.15
2022-08-25T02:05:56.036Z,2.13
2022-08-25T02:08:23.790Z,1.98
2022-08-25T02:10:52.147Z,2.10
2022-08-25T02:13:20.212Z,2.10
2022-08-25T02:15:56.648Z,2.15
2022-08-25T02:18:23.940Z,2.00
2022-08-25T02:20:51.037Z,2.22
2022-08-25T02:23:17.968Z,1.92
2022-08-25T02:25:44.830Z,2.22
2022-08-25T02:28:11.987Z,2.10
2022-08-25T02:30:40.920Z,2.10
2022-08-25T02:33:08.825Z,1.90
2022-08-25T02:35:36.754Z,2.03
2022-08-25T02:38:05.171Z,2.00
2022-08-25T02:40:32.288Z,1.90
2022-08-25T02:42:59.296Z,2.03
2022-08-25T02:45:26.291Z,2.38
2022-08-25T02:47:53.791Z,1.92
2022-08-25T02:50:20.931Z,2.00
2022-08-25T02:52:50.518Z,2.35
2022-08-25T02:55:18.797Z,2.00
2022-08-25T02:57:45.692Z,2.10
2022-08-25T03:00:14.536Z,2.15
2022-08-25T03:02:42.202Z,1.70
2022-08-25T03:05:10.830Z,1.88
2022-08-25T03:07:38.569Z,1.85
2022-08-25T03:10:13.777Z,2.20
2022-08-25T03:12:43.831Z,2.00
2022-08-25T03:15:12.314Z,2.40
2022-08-25T03:17:40.193Z,2.05
2022-08-25T03:20:08.237Z,1.98
2022-08-25T03:22:35.407Z,2.60
2022-08-25T03:25:24.273Z,2.30
2022-08-25T03:27:52.034Z,2.85
2022-08-25T03:30:19.995Z,2.92
2022-08-25T03:32:47.288Z,2.70
2022-08-25T03:35:14.342Z,2.45
2022-08-25T03:37:41.299Z,2.63
2022-08-25T03:40:15.365Z,3.13
2022-08-25T03:42:47.003Z,3.03
2022-08-25T03:45:16.536Z,2.38
2022-08-25T03:47:47.451Z,2.60
2022-08-25T03:50:16.106Z,2.60
2022-08-25T03:52:43.167Z,2.30
2022-08-25T03:55:12.534Z,2.55
2022-08-25T03:57:39.774Z,2.33
2022-08-25T04:00:09.823Z,2.33
2022-08-25T04:02:40.050Z,2.47
2022-08-25T04:05:08.436Z,2.60
2022-08-25T04:07:36.056Z,2.42
2022-08-25T04:10:03.933Z,2.33
2022-08-25T04:12:30.781Z,2.38
2022-08-25T04:14:58.841Z,2.75
2022-08-25T04:17:25.802Z,2.33
2022-08-25T04:19:52.768Z,2.33
2022-08-25T04:22:19.882Z,2.55
2022-08-25T04:24:46.903Z,2.47
2022-08-25T04:27:14.272Z,2.25
2022-08-25T04:29:41.388Z,3.17
2022-08-25T04:32:08.406Z,2.90
2022-08-25T04:34:35.421Z,2.53
2022-08-25T04:37:05.482Z,2.55
2022-08-25T04:39:32.459Z,2.50
2022-08-25T04:42:00.675Z,2.60
2022-08-25T04:44:28.475Z,2.72
2022-08-25T04:46:55.447Z,2.42
2022-08-25T04:49:22.439Z,2.70
2022-08-25T04:51:49.428Z,2.53
2022-08-25T04:54:17.326Z,2.45
2022-08-25T04:56:44.582Z,3.30
2022-08-25T04:59:15.761Z,3.03
2022-08-25T05:01:43.738Z,3.10
2022-08-25T05:04:14.571Z,3.15
2022-08-25T05:06:54.993Z,3.03
2022-08-25T05:09:21.915Z,2.70
2022-08-25T05:11:48.881Z,3.35
2022-08-25T05:14:18.261Z,3.00
2022-08-25T05:16:45.650Z,3.00
2022-08-25T05:19:13.107Z,3.58
2022-08-25T05:21:40.367Z,3.78
2022-08-25T05:24:08.027Z,3.70
2022-08-25T05:26:36.682Z,3.90
2022-08-25T05:29:05.324Z,3.53
2022-08-25T05:31:33.451Z,4.10
2022-08-25T05:34:00.990Z,4.30
2022-08-25T05:36:29.568Z,5.30
2022-08-25T05:38:56.974Z,5.47
2022-08-25T05:41:28.355Z,4.63
2022-08-25T05:43:55.489Z,5.65
2022-08-25T05:46:23.705Z,5.05
2022-08-25T05:48:50.997Z,5.13
2022-08-25T05:51:18.458Z,4.65
2022-08-25T05:53:47.817Z,5.53
2022-08-25T06:00:32.898Z,4.72
2022-08-25T06:02:59.785Z,4.75
2022-08-25T06:09:58.917Z,3.75
2022-08-25T06:12:26.288Z,3.80
2022-08-25T06:14:53.174Z,3.45
2022-08-25T06:17:20.077Z,3.65
2022-08-25T06:19:46.913Z,2.90
2022-08-25T06:22:13.836Z,3.00
2022-08-25T06:24:40.915Z,2.90
2022-08-25T06:27:07.844Z,2.55
2022-08-25T06:29:34.737Z,2.60
2022-08-25T06:32:01.661Z,2.83
2022-08-25T06:34:28.666Z,2.88
2022-08-25T06:36:55.630Z,2.20
2022-08-25T06:39:23.984Z,2.50
2022-08-25T06:41:52.623Z,2.88
2022-08-25T06:44:19.544Z,1.98
2022-08-25T06:46:47.293Z,2.40
2022-08-25T06:49:14.564Z,2.00
2022-08-25T06:51:42.376Z,2.80
2022-08-25T06:54:12.608Z,2.45
2022-08-25T07:01:19.637Z,2.55
2022-08-25T07:03:47.136Z,2.33
2022-08-25T07:06:18.343Z,1.92
2022-08-25T07:08:46.581Z,2.40
2022-08-25T07:11:16.171Z,3.53
2022-08-25T07:13:44.170Z,2.30
2022-08-25T07:16:15.590Z,2.40
2022-08-25T07:18:44.121Z,2.35
2022-08-25T07:21:12.397Z,2.10
2022-08-25T07:23:40.908Z,2.88
2022-08-25T07:29:12.709Z,2.22
2022-08-25T07:31:39.899Z,1.98
2022-08-25T07:34:26.171Z,2.33
2022-08-25T07:36:54.547Z,1.95
2022-08-25T07:39:23.014Z,2.05
2022-08-25T07:41:52.011Z,2.30
2022-08-25T07:44:21.848Z,2.00
2022-08-25T07:46:51.079Z,2.60
2022-08-25T07:49:23.218Z,2.10
2022-08-25T07:52:05.697Z,2.08
2022-08-25T07:54:35.566Z,2.17
2022-08-25T07:57:08.933Z,2.40
2022-08-25T07:59:40.433Z,2.65
2022-08-25T08:02:18.790Z,2.30
2022-08-25T08:04:49.534Z,2.30
2022-08-25T08:07:23.414Z,2.13
2022-08-25T08:10:05.290Z,1.92
2022-08-25T08:12:37.799Z,1.70
2022-08-25T08:15:10.468Z,2.50
2022-08-25T08:17:38.926Z,2.20
2022-08-25T08:20:10.491Z,2.08
2022-08-25T08:22:42.729Z,2.08
2022-08-25T08:25:11.492Z,2.00
2022-08-25T08:27:46.229Z,2.00
2022-08-25T08:30:14.154Z,1.58
2022-08-25T08:33:06.331Z,1.90
2022-08-25T08:35:28.674Z,2.65
2022-08-25T08:37:58.355Z,2.33
2022-08-25T08:40:25.430Z,2.55
2022-08-25T08:43:17.990Z,3.47
2022-08-25T08:45:53.145Z,2.70
2022-08-25T08:48:39.471Z,2.40
2022-08-25T08:51:24.829Z,2.40
2022-08-25T08:54:26.533Z,2.50
2022-08-25T08:57:19.728Z,2.63
2022-08-25T08:59:52.591Z,3.13
2022-08-25T09:02:52.722Z,2.30
2022-08-25T09:05:24.290Z,2.25
2022-08-25T09:07:56.789Z,2.60
2022-08-25T09:10:28.673Z,2.55
2022-08-25T09:13:20.740Z,2.65
2022-08-25T09:16:34.107Z,2.40
2022-08-25T09:19:11.899Z,2.30
2022-08-25T09:22:02.846Z,2.38
2022-08-25T09:24:55.517Z,2.42
2022-08-25T09:27:34.347Z,2.58
2022-08-25T09:30:10.078Z,2.63
2022-08-25T09:32:48.776Z,2.88
2022-08-25T09:35:28.880Z,2.75
2022-08-25T09:38:16.183Z,2.67
2022-08-25T09:40:52.147Z,2.45
2022-08-25T09:43:43.273Z,3.00
2022-08-25T09:46:13.234Z,2.60
2022-08-25T09:48:56.611Z,2.83
2022-08-25T09:51:29.237Z,2.42
2022-08-25T09:53:59.690Z,2.78
2022-08-25T10:01:17.322Z,2.35
2022-08-25T10:04:06.085Z,2.40
2022-08-25T10:06:45.273Z,2.53
2022-08-25T10:09:23.712Z,2.30
2022-08-25T10:11:52.644Z,2.75
2022-08-25T10:14:44.608Z,3.30
2022-08-25T10:17:29.876Z,2.60
2022-08-25T10:20:19.939Z,2.58
2022-08-25T10:22:48.356Z,2.60
2022-08-25T10:25:41.277Z,2.50
2022-08-25T10:28:34.059Z,2.60
2022-08-25T10:31:34.653Z,2.58
2022-08-25T10:34:28.640Z,2.85
2022-08-25T10:37:18.460Z,3.15
2022-08-25T10:40:11.264Z,2.55
2022-08-25T10:42:58.128Z,2.88
2022-08-25T10:45:56.977Z,2.88
2022-08-25T10:48:50.415Z,2.58
2022-08-25T10:51:41.087Z,2.63
2022-08-25T10:54:31.653Z,2.50
2022-08-25T10:57:21.494Z,2.45
2022-08-25T11:00:04.330Z,2.47
2022-08-25T11:03:01.942Z,2.78
2022-08-25T11:05:40.073Z,2.60
2022-08-25T11:08:37.644Z,2.30
2022-08-25T11:15:39.730Z,2.58
2022-08-25T11:18:17.302Z,2.80
2022-08-25T11:20:54.792Z,2.72
2022-08-25T11:23:33.906Z,2.28
2022-08-25T11:26:09.166Z,2.35
2022-08-25T11:29:06.142Z,2.55
2022-08-25T11:31:42.781Z,2.30
2022-08-25T11:34:14.509Z,2.50
2022-08-25T11:36:52.537Z,2.30
2022-08-25T11:43:56.442Z,1.95
2022-08-25T11:46:46.350Z,2.40
2022-08-25T11:49:31.686Z,2.20
2022-08-25T11:56:40.036Z,2.13
2022-08-25T11:59:07.959Z,2.10
2022-08-25T12:01:43.052Z,2.25
2022-08-25T12:04:45.223Z,2.38
2022-08-25T12:07:19.180Z,2.20
2022-08-25T12:09:55.820Z,2.40
2022-08-25T12:16:36.515Z,2.10
2022-08-25T12:19:37.033Z,2.10
2022-08-25T12:22:05.005Z,2.08
2022-08-25T12:24:47.874Z,2.28
2022-08-25T12:27:39.949Z,2.20
2022-08-25T12:30:20.615Z,2.25
2022-08-25T12:32:56.150Z,2.08
2022-08-25T12:35:50.485Z,2.42
2022-08-25T12:42:44.856Z,2.42
2022-08-25T12:45:20.701Z,2.30
2022-08-25T12:47:49.984Z,2.30
2022-08-25T12:50:34.561Z,2.83
2022-08-25T12:53:15.497Z,2.55
2022-08-25T12:55:48.697Z,2.70
2022-08-25T12:58:16.238Z,2.43
2022-08-25T13:00:52.493Z,2.33
2022-08-25T13:06:32.708Z,2.50
2022-08-25T13:09:24.109Z,2.35
2022-08-25T13:12:18.529Z,2.22
2022-08-25T13:14:52.279Z,2.60
2022-08-25T13:17:34.198Z,2.75
2022-08-25T13:20:23.388Z,2.30
2022-08-25T13:27:27.889Z,2.90
2022-08-25T13:29:58.282Z,2.58
2022-08-25T13:32:32.411Z,2.80
2022-08-25T13:35:20.068Z,2.90
2022-08-25T13:37:47.878Z,2.47
2022-08-25T13:40:19.664Z,2.67
2022-08-25T13:47:17.239Z,2.50
2022-08-25T13:49:47.363Z,3.05
2022-08-25T13:52:29.140Z,2.63
2022-08-25T13:55:01.213Z,2.83
2022-08-25T13:57:32.339Z,2.92
2022-08-25T14:00:08.709Z,2.50
2022-08-25T14:02:51.701Z,3.10
2022-08-25T14:05:40.538Z,2.72
2022-08-25T14:08:38.587Z,3.08
2022-08-25T14:11:14.932Z,2.88
2022-08-25T14:13:45.301Z,2.70
2022-08-25T14:16:21.930Z,2.42
2022-08-25T14:18:54.947Z,2.72
2022-08-25T14:21:28.244Z,2.93
2022-08-25T14:23:56.976Z,2.85
2022-08-25T14:26:24.991Z,2.40
2022-08-25T14:28:53.664Z,2.88
2022-08-25T14:31:20.594Z,3.05
2022-08-25T14:34:00.996Z,3.00
2022-08-25T14:40:53.974Z,2.83
2022-08-25T14:43:24.009Z,2.70
2022-08-25T14:50:24.942Z,2.95
2022-08-25T14:52:52.422Z,2.80
2022-08-25T14:55:31.134Z,2.97
2022-08-25T14:57:59.756Z,3.05
2022-08-25T15:00:26.860Z,3.00
2022-08-25T15:02:55.180Z,3.50
2022-08-25T15:05:28.276Z,4.18
2022-08-25T15:12:46.620Z,3.35
2022-08-25T15:15:14.345Z,3.45
2022-08-25T15:17:42.048Z,3.10
2022-08-25T15:20:11.991Z,3.47
2022-08-25T15:22:39.007Z,3.08
2022-08-25T15:25:08.994Z,3.30
2022-08-25T15:27:36.847Z,3.55
2022-08-25T15:30:05.415Z,4.00
2022-08-25T15:32:32.607Z,6.13
2022-08-25T15:35:00.394Z,3.40
2022-08-25T15:41:49.360Z,4.55
2022-08-25T15:44:16.567Z,3.33
2022-08-25T15:46:47.004Z,3.25
2022-08-25T15:49:20.718Z,3.25
2022-08-25T15:51:54.644Z,3.10
2022-08-25T15:54:23.098Z,3.83
2022-08-25T15:56:50.647Z,4.05
2022-08-25T16:03:32.055Z,3.40
2022-08-25T16:05:59.027Z,4.32
2022-08-25T16:08:25.968Z,4.03
2022-08-25T16:10:52.951Z,3.95
2022-08-25T16:17:50.592Z,3.35
2022-08-25T16:20:19.624Z,3.13
2022-08-25T16:22:47.726Z,3.53
2022-08-25T16:29:36.908Z,3.10
2022-08-25T16:32:05.133Z,3.05
2022-08-25T16:34:32.345Z,3.00
2022-08-25T16:41:35.897Z,3.70
2022-08-25T16:44:05.247Z,3.72
2022-08-25T16:46:32.730Z,3.83
2022-08-25T16:49:04.890Z,3.38
2022-08-25T16:51:32.748Z,3.45
2022-08-25T16:54:22.059Z,3.30
2022-08-25T16:56:54.904Z,3.15
2022-08-25T16:59:23.550Z,3.33
2022-08-25T17:01:52.363Z,3.33
2022-08-25T17:04:20.622Z,3.30
2022-08-25T17:06:51.883Z,3.17
2022-08-25T17:09:23.770Z,3.55
2022-08-25T17:11:54.296Z,3.05
2022-08-25T17:14:21.650Z,3.00
2022-08-25T17:16:50.602Z,3.67
2022-08-25T17:23:37.756Z,3.75
2022-08-25T17:26:07.216Z,3.50
2022-08-25T17:28:40.925Z,3.50
2022-08-25T17:31:08.643Z,3.47
2022-08-25T17:37:49.928Z,3.28
2022-08-25T17:40:17.725Z,3.53
2022-08-25T17:42:44.938Z,2.92
2022-08-25T17:45:11.850Z,3.47
2022-08-25T17:47:38.811Z,3.00
2022-08-25T17:50:06.122Z,3.40
2022-08-25T17:52:33.548Z,2.90
2022-08-25T17:55:00.568Z,3.00
2022-08-25T17:57:27.489Z,3.80
2022-08-25T17:59:54.530Z,3.80
2022-08-25T18:02:21.455Z,3.60
2022-08-25T18:04:48.813Z,3.60
2022-08-25T18:07:15.749Z,3.90
2022-08-25T18:09:44.137Z,4.07
2022-08-25T18:12:12.549Z,4.35
2022-08-25T18:14:39.520Z,4.13
2022-08-25T18:17:06.387Z,3.85
2022-08-25T18:19:33.311Z,3.83
2022-08-25T18:26:13.176Z,3.70
2022-08-25T18:28:40.396Z,4.13
2022-08-25T18:35:29.265Z,3.42
2022-08-25T18:38:14.696Z,3.47
2022-08-25T18:40:42.488Z,4.55
2022-08-25T18:47:35.303Z,3.97
2022-08-25T18:50:04.507Z,4.13
2022-08-25T18:52:31.824Z,4.22
2022-08-25T18:55:00.272Z,3.90
2022-08-25T19:01:46.617Z,3.80
2022-08-25T19:04:15.043Z,3.78
2022-08-25T19:11:00.403Z,5.72
2022-08-25T19:13:27.348Z,3.90
2022-08-25T19:15:54.441Z,4.03
2022-08-25T19:18:28.891Z,3.40
2022-08-25T19:20:56.393Z,3.50
2022-08-25T19:27:48.173Z,3.35
2022-08-25T19:30:17.455Z,3.65
2022-08-25T19:32:46.554Z,3.58
2022-08-25T19:35:44.062Z,3.88
2022-08-25T19:38:33.858Z,3.40
2022-08-25T19:41:02.596Z,3.80
2022-08-25T19:43:38.821Z,3.90
2022-08-25T19:46:07.170Z,4.07
2022-08-25T19:48:34.258Z,3.72
2022-08-25T19:51:04.192Z,3.75
2022-08-25T19:53:31.471Z,3.83
2022-08-25T19:56:00.102Z,3.95
2022-08-25T19:58:27.435Z,3.92
2022-08-25T20:00:54.382Z,3.97
2022-08-25T20:03:21.592Z,3.60
2022-08-25T20:05:49.049Z,4.15
2022-08-25T20:08:16.129Z,3.78
2022-08-25T20:10:43.182Z,3.45
2022-08-25T20:13:10.070Z,4.30
2022-08-25T20:15:39.015Z,4.30
2022-08-25T20:18:06.577Z,4.20
2022-08-25T20:20:34.718Z,4.10
2022-08-25T20:23:22.781Z,3.78
2022-08-25T20:30:26.871Z,3.90
2022-08-25T20:32:55.677Z,4.10
2022-08-25T20:35:26.603Z,4.10
2022-08-25T20:37:55.572Z,3.97
2022-08-25T20:40:25.680Z,3.88
2022-08-25T20:42:53.519Z,4.20
2022-08-25T20:45:23.913Z,4.50
2022-08-25T20:47:51.209Z,4.13
2022-08-25T20:50:18.885Z,3.90
2022-08-25T20:52:46.026Z,3.83
2022-08-25T20:55:15.410Z,3.70
2022-08-25T20:57:48.406Z,4.40
2022-08-25T21:00:16.765Z,3.70
2022-08-25T21:02:46.276Z,3.90
2022-08-25T21:05:13.528Z,3.70
2022-08-25T21:07:41.716Z,4.00
2022-08-25T21:10:14.084Z,3.95
2022-08-25T21:12:42.305Z,4.07
2022-08-25T21:19:33.561Z,4.38
2022-08-25T21:22:00.753Z,4.55
2022-08-25T21:24:28.352Z,4.35
2022-08-25T21:26:57.630Z,4.45
2022-08-25T21:29:28.592Z,3.78
2022-08-25T21:31:57.813Z,4.00
2022-08-25T21:34:25.689Z,4.13
2022-08-25T21:36:57.900Z,4.15
2022-08-25T21:39:27.623Z,4.07
2022-08-25T21:41:56.587Z,4.38
2022-08-25T21:44:23.619Z,4.15
2022-08-25T21:46:54.097Z,4.10
2022-08-25T21:49:22.427Z,4.20
2022-08-25T21:51:59.238Z,4.15
2022-08-25T21:54:27.221Z,3.78
2022-08-25T21:56:59.673Z,4.40
2022-08-25T21:59:32.897Z,4.22
2022-08-25T22:02:07.741Z,4.55
2022-08-25T22:04:38.814Z,4.07
2022-08-25T22:07:06.985Z,3.60
2022-08-25T22:09:35.375Z,4.10
2022-08-25T22:12:02.763Z,4.25
2022-08-25T22:14:29.894Z,4.10
2022-08-25T22:16:57.291Z,3.88
2022-08-25T22:19:24.804Z,4.97
2022-08-25T22:21:55.450Z,4.20
2022-08-25T22:24:28.087Z,4.10
2022-08-25T22:26:56.137Z,4.47
2022-08-25T22:29:24.984Z,4.20
2022-08-25T22:32:00.744Z,3.90
2022-08-25T22:34:33.199Z,3.95
2022-08-25T22:37:04.765Z,4.32
2022-08-25T22:39:34.213Z,4.20
2022-08-25T22:42:02.122Z,4.15
2022-08-25T22:44:29.185Z,4.03
2022-08-25T22:46:56.221Z,3.85
2022-08-25T22:49:23.741Z,4.15
2022-08-25T22:51:51.081Z,3.45
2022-08-25T22:54:20.666Z,3.85
2022-08-25T22:56:47.479Z,4.20
2022-08-25T22:59:14.620Z,4.13
2022-08-25T23:01:45.126Z,3.83
2022-08-25T23:04:12.705Z,3.45
2022-08-25T23:06:39.777Z,4.25
2022-08-25T23:09:08.796Z,3.60
2022-08-25T23:11:38.678Z,4.07
2022-08-25T23:14:10.001Z,4.45
2022-08-25T23:16:41.981Z,4.22
2022-08-25T23:19:11.065Z,4.03
2022-08-25T23:22:03.240Z,4.40
2022-08-25T23:24:31.901Z,3.75
2022-08-25T23:27:00.839Z,3.83
2022-08-25T23:29:28.112Z,3.63
2022-08-25T23:31:56.589Z,3.90
2022-08-25T23:34:24.192Z,3.78
2022-08-25T23:36:52.193Z,3.65
2022-08-25T23:39:21.610Z,3.83
2022-08-25T23:41:49.429Z,4.00
2022-08-25T23:44:17.201Z,4.28
2022-08-25T23:46:47.060Z,3.40
2022-08-25T23:49:18.687Z,4.18
2022-08-25T23:51:48.684Z,4.28
2022-08-25T23:54:17.578Z,3.80
2022-08-25T23:56:52.218Z,3.65
2022-08-25T23:59:24.552Z,4.00
